Adair Village, Oregon
Current Conditions -  °F | °C
As of 3:15 PM on Wednesday 26 Nov 2014 (Local Time) from KCVO Reporting Station
Clear Clear  
Wind Chill: 14°   Ceiling: Unl
Heat Index: 14°   Visibility: 8mi
Dew Point: 11°   Wind: 3mph
Humidity: 82%   Direction: 150°SSE
Pressure: 30.09"   Gusts: NA
Location:  44.6364°N, 123.28°W
Report Text: KCVO 262315Z AUTO 15003KT 8SM CLR 14/11 A3009 RMK AO1
Loading
Personal Weather Stations






























Interactive Weather Map New forecast layout! Learn more

10-Day Weather Forecast

Advertisements
Track Severe Weather on mobile